createdAt,value
2023-04-22T00:00:02.482Z,6.60
2023-04-22T00:02:34.089Z,8.50
2023-04-22T00:05:02.717Z,6.30
2023-04-22T00:07:31.305Z,6.60
2023-04-22T00:10:00.066Z,9.00
2023-04-22T00:12:31.331Z,5.60
2023-04-22T00:14:59.721Z,6.30
2023-04-22T00:17:28.205Z,3.90
2023-04-22T00:19:57.136Z,4.70
2023-04-22T00:22:25.582Z,9.40
2023-04-22T00:24:53.839Z,9.50
2023-04-22T00:27:22.427Z,5.80
2023-04-22T00:29:50.888Z,7.30
2023-04-22T00:32:19.148Z,11.20
2023-04-22T00:34:47.540Z,5.00
2023-04-22T00:37:16.529Z,10.70
2023-04-22T00:39:44.926Z,9.50
2023-04-22T00:42:13.856Z,4.40
2023-04-22T00:44:42.684Z,8.40
2023-04-22T00:47:11.311Z,3.60
2023-04-22T00:49:40.079Z,15.20
2023-04-22T00:52:08.734Z,3.90
2023-04-22T00:54:37.314Z,7.20
2023-04-22T00:57:05.693Z,6.60
2023-04-22T00:59:33.871Z,4.90
2023-04-22T01:02:02.226Z,3.50
2023-04-22T01:04:31.815Z,6.20
2023-04-22T01:07:03.620Z,6.40
2023-04-22T01:09:32.596Z,10.40
2023-04-22T01:12:01.832Z,4.50
2023-04-22T01:14:30.312Z,2.20
2023-04-22T01:16:59.498Z,3.00
2023-04-22T01:19:29.596Z,3.80
2023-04-22T01:21:57.942Z,3.50
2023-04-22T01:24:26.654Z,6.70
2023-04-22T01:26:55.132Z,5.20
2023-04-22T01:29:23.623Z,2.70
2023-04-22T01:31:52.404Z,4.40
2023-04-22T01:34:20.883Z,5.50
2023-04-22T01:36:50.633Z,5.30
2023-04-22T01:39:18.966Z,5.50
2023-04-22T01:41:47.342Z,4.90
2023-04-22T01:44:16.497Z,2.80
2023-04-22T01:46:45.657Z,4.20
2023-04-22T01:49:13.807Z,9.60
2023-04-22T01:51:42.078Z,4.30
2023-04-22T01:54:10.762Z,3.40
2023-04-22T01:56:40.675Z,3.00
2023-04-22T01:59:09.304Z,4.70
2023-04-22T02:01:39.091Z,4.00
2023-04-22T02:04:08.203Z,4.80
2023-04-22T02:06:37.255Z,2.80
2023-04-22T02:09:07.190Z,3.60
2023-04-22T02:11:35.762Z,2.30
2023-04-22T02:14:04.166Z,2.10
2023-04-22T02:16:32.718Z,2.10
2023-04-22T02:19:01.197Z,8.40
2023-04-22T02:21:30.487Z,3.50
2023-04-22T02:23:58.864Z,3.00
2023-04-22T02:26:31.041Z,3.10
2023-04-22T02:28:59.914Z,3.40
2023-04-22T02:31:28.669Z,3.10
2023-04-22T02:33:57.084Z,3.30
2023-04-22T02:36:25.770Z,1.50
2023-04-22T02:38:54.451Z,2.60
2023-04-22T02:41:22.867Z,4.80
2023-04-22T02:43:51.332Z,1.90
2023-04-22T02:46:19.816Z,4.30
2023-04-22T02:48:49.513Z,1.70
2023-04-22T02:51:17.719Z,2.00
2023-04-22T02:53:46.028Z,3.30
2023-04-22T02:56:14.421Z,3.40
2023-04-22T02:58:42.801Z,2.40
2023-04-22T03:01:11.940Z,3.80
2023-04-22T03:03:40.700Z,3.00
2023-04-22T03:06:10.696Z,1.40
2023-04-22T03:08:39.891Z,2.80
2023-04-22T03:11:08.489Z,2.60
2023-04-22T03:13:36.967Z,1.10
2023-04-22T03:16:05.526Z,2.20
2023-04-22T03:18:34.220Z,2.40
2023-04-22T03:21:02.827Z,2.70
2023-04-22T03:23:31.591Z,2.00
2023-04-22T03:26:01.809Z,3.20
2023-04-22T03:28:30.599Z,4.80
2023-04-22T03:30:59.177Z,7.50
2023-04-22T03:33:27.757Z,4.40
2023-04-22T03:36:00.648Z,4.70
2023-04-22T03:38:29.223Z,4.30
2023-04-22T03:40:57.616Z,2.20
2023-04-22T03:43:37.327Z,3.00
2023-04-22T03:46:09.195Z,1.40
2023-04-22T03:48:41.564Z,2.30
2023-04-22T03:51:14.021Z,1.80
2023-04-22T03:53:42.740Z,4.10
2023-04-22T03:56:12.515Z,5.40
2023-04-22T03:58:42.864Z,3.30
2023-04-22T04:01:12.298Z,6.00
2023-04-22T04:03:41.438Z,6.10
2023-04-22T04:06:10.247Z,5.70
2023-04-22T04:08:38.940Z,5.30
2023-04-22T04:11:09.299Z,2.30
2023-04-22T04:13:37.949Z,2.30
2023-04-22T04:16:16.596Z,3.20
2023-04-22T04:18:45.653Z,2.50
2023-04-22T04:21:14.576Z,3.10
2023-04-22T04:23:47.733Z,2.30
2023-04-22T04:26:16.769Z,2.30
2023-04-22T04:28:47.452Z,2.00
2023-04-22T04:31:17.665Z,2.20
2023-04-22T04:33:47.585Z,1.30
2023-04-22T04:36:16.579Z,1.40
2023-04-22T04:38:47.311Z,3.70
2023-04-22T04:41:15.785Z,1.30
2023-04-22T04:43:46.590Z,1.20
2023-04-22T04:46:41.543Z,1.80
2023-04-22T04:49:12.728Z,1.00
2023-04-22T04:51:51.794Z,3.20
2023-04-22T04:54:20.580Z,4.10
2023-04-22T04:56:49.260Z,1.50
2023-04-22T04:59:18.149Z,2.70
2023-04-22T05:01:46.650Z,1.00
2023-04-22T05:04:15.355Z,2.00
2023-04-22T05:06:44.720Z,2.80
2023-04-22T05:09:14.630Z,1.00
2023-04-22T05:11:44.583Z,0.60
2023-04-22T05:14:18.750Z,3.30
2023-04-22T05:16:48.050Z,1.10
2023-04-22T05:19:16.447Z,1.20
2023-04-22T05:21:45.229Z,1.60
2023-04-22T05:24:13.704Z,1.20
2023-04-22T05:26:42.288Z,1.10
2023-04-22T05:29:15.645Z,2.70
2023-04-22T05:31:44.302Z,2.40
2023-04-22T05:34:12.952Z,2.00
2023-04-22T05:36:41.226Z,2.30
2023-04-22T05:39:09.621Z,2.50
2023-04-22T05:41:38.102Z,2.00
2023-04-22T05:44:09.321Z,1.40
2023-04-22T05:46:37.649Z,2.80
2023-04-22T05:49:06.286Z,1.30
2023-04-22T05:51:53.151Z,1.70
2023-04-22T05:54:23.312Z,2.40
2023-04-22T05:56:52.000Z,0.60
2023-04-22T05:59:21.799Z,1.50
2023-04-22T06:01:51.213Z,1.90
2023-04-22T06:04:21.740Z,2.40
2023-04-22T06:06:53.931Z,2.80
2023-04-22T06:09:22.563Z,8.40
2023-04-22T06:11:51.176Z,1.10
2023-04-22T06:14:19.443Z,1.30
2023-04-22T06:16:48.128Z,1.20
2023-04-22T06:19:18.348Z,1.90
2023-04-22T06:21:46.655Z,1.40
2023-04-22T06:24:15.104Z,1.50
2023-04-22T06:26:43.895Z,2.50
2023-04-22T06:29:12.573Z,1.70
2023-04-22T06:31:41.493Z,2.20
2023-04-22T06:34:10.154Z,2.20
2023-04-22T06:36:39.453Z,3.80
2023-04-22T06:39:10.410Z,1.70
2023-04-22T06:41:40.855Z,2.00
2023-04-22T06:44:17.420Z,2.00
2023-04-22T06:47:11.870Z,3.80
2023-04-22T06:50:03.698Z,0.80
2023-04-22T06:52:38.216Z,2.40
2023-04-22T06:55:07.218Z,1.20
2023-04-22T06:57:36.087Z,6.70
2023-04-22T07:00:10.723Z,2.50
2023-04-22T07:02:40.912Z,1.90
2023-04-22T07:05:10.058Z,3.00
2023-04-22T07:07:38.926Z,1.30
2023-04-22T07:10:07.922Z,2.20
2023-04-22T07:12:41.122Z,2.20
2023-04-22T07:15:10.300Z,2.90
2023-04-22T07:17:39.401Z,2.50
2023-04-22T07:20:08.957Z,2.40
2023-04-22T07:22:42.053Z,0.90
2023-04-22T07:25:14.467Z,1.30
2023-04-22T07:27:42.794Z,1.50
2023-04-22T07:30:11.727Z,1.20
2023-04-22T07:32:40.050Z,2.40
2023-04-22T07:35:08.913Z,3.40
2023-04-22T07:37:37.292Z,1.20
2023-04-22T07:40:12.187Z,5.10
2023-04-22T07:42:46.008Z,1.50
2023-04-22T07:45:14.489Z,1.30
2023-04-22T07:47:43.265Z,0.50
2023-04-22T07:50:11.626Z,1.10
2023-04-22T07:52:40.074Z,2.70
2023-04-22T07:55:08.664Z,2.00
2023-04-22T07:57:39.126Z,2.70
2023-04-22T08:00:08.219Z,2.10
2023-04-22T08:05:13.133Z,1.90
2023-04-22T08:07:41.466Z,1.40
2023-04-22T08:10:10.025Z,0.60
2023-04-22T08:12:38.216Z,3.00
2023-04-22T08:15:07.005Z,1.20
2023-04-22T08:17:35.281Z,1.50
2023-04-22T08:20:07.817Z,1.50
2023-04-22T08:22:36.976Z,0.90
2023-04-22T08:25:06.817Z,2.10
2023-04-22T08:27:35.396Z,0.60
2023-04-22T08:30:06.363Z,3.40
2023-04-22T08:32:35.605Z,1.20
2023-04-22T08:35:05.435Z,1.30
2023-04-22T08:37:34.388Z,1.70
2023-04-22T08:40:05.334Z,0.70
2023-04-22T08:42:34.876Z,1.20
2023-04-22T08:45:05.150Z,2.50
2023-04-22T08:47:33.634Z,2.80
2023-04-22T08:50:02.430Z,1.70
2023-04-22T08:52:31.370Z,1.20
2023-04-22T08:54:59.958Z,0.70
2023-04-22T08:57:28.478Z,1.00
2023-04-22T08:59:56.831Z,1.60
2023-04-22T09:02:26.040Z,1.30
2023-04-22T09:04:54.404Z,1.30
2023-04-22T09:07:24.920Z,1.80
2023-04-22T09:09:54.742Z,2.70
2023-04-22T09:12:23.368Z,1.00
2023-04-22T09:14:52.499Z,1.70
2023-04-22T09:17:34.213Z,2.40
2023-04-22T09:20:03.445Z,1.60
2023-04-22T09:22:41.224Z,3.80
2023-04-22T09:25:22.722Z,0.80
2023-04-22T09:27:55.932Z,2.60
2023-04-22T09:30:32.013Z,2.50
2023-04-22T09:33:01.849Z,2.70
2023-04-22T09:35:32.021Z,2.10
2023-04-22T09:38:06.367Z,3.10
2023-04-22T09:40:36.151Z,1.70
2023-04-22T09:43:06.828Z,1.70
2023-04-22T09:45:36.095Z,5.20
2023-04-22T09:48:11.410Z,1.60
2023-04-22T09:50:45.547Z,1.90
2023-04-22T09:53:18.441Z,1.20
2023-04-22T09:55:48.195Z,2.40
2023-04-22T09:58:24.110Z,2.90
2023-04-22T10:00:58.167Z,2.80
2023-04-22T10:03:26.539Z,1.80
2023-04-22T10:05:55.419Z,0.60
2023-04-22T10:08:24.088Z,0.50
2023-04-22T10:10:52.772Z,0.80
2023-04-22T10:13:21.245Z,1.20
2023-04-22T10:15:53.068Z,1.40
2023-04-22T10:18:30.422Z,0.80
2023-04-22T10:20:58.815Z,0.90
2023-04-22T10:23:29.081Z,0.60
2023-04-22T10:25:57.374Z,0.50
2023-04-22T10:28:28.531Z,2.00
2023-04-22T10:30:57.344Z,0.30
2023-04-22T10:33:29.143Z,1.10
2023-04-22T10:36:16.351Z,0.50
2023-04-22T10:38:50.500Z,1.20
2023-04-22T10:41:23.182Z,0.60
2023-04-22T10:43:58.686Z,0.40
2023-04-22T10:46:37.742Z,1.70
2023-04-22T10:49:06.991Z,2.40
2023-04-22T10:52:04.083Z,0.50
2023-04-22T10:54:36.924Z,1.90
2023-04-22T10:57:12.891Z,0.30
2023-04-22T10:59:50.211Z,0.90
2023-04-22T11:02:19.547Z,1.10
2023-04-22T11:04:47.860Z,1.10
2023-04-22T11:07:20.783Z,0.70
2023-04-22T11:09:53.813Z,1.60
2023-04-22T11:12:41.917Z,0.60
2023-04-22T11:15:17.644Z,2.20
2023-04-22T11:17:47.619Z,1.20
2023-04-22T11:20:19.743Z,1.40
2023-04-22T11:22:50.555Z,0.80
2023-04-22T11:25:19.270Z,0.50
2023-04-22T11:27:47.802Z,1.60
2023-04-22T11:30:17.061Z,1.20
2023-04-22T11:32:46.900Z,1.10
2023-04-22T11:35:18.222Z,1.50
2023-04-22T11:37:51.005Z,2.00
2023-04-22T11:40:31.226Z,1.20
2023-04-22T11:43:03.729Z,4.10
2023-04-22T11:45:34.920Z,1.00
2023-04-22T11:48:04.529Z,2.60
2023-04-22T11:50:35.123Z,1.00
2023-04-22T11:53:04.826Z,1.80
2023-04-22T11:55:38.301Z,0.70
2023-04-22T11:58:08.206Z,0.60
2023-04-22T12:00:43.766Z,0.30
2023-04-22T12:03:18.639Z,0.40
2023-04-22T12:06:05.440Z,0.60
2023-04-22T12:08:36.903Z,1.00
2023-04-22T12:11:10.766Z,0.40
2023-04-22T12:13:42.694Z,1.00
2023-04-22T12:16:17.113Z,0.30
2023-04-22T12:18:48.928Z,0.40
2023-04-22T12:21:19.367Z,0.40
2023-04-22T12:23:49.592Z,0.90
2023-04-22T12:26:19.357Z,0.60
2023-04-22T12:28:47.822Z,0.20
2023-04-22T12:31:16.324Z,0.40
2023-04-22T12:33:44.638Z,0.80
2023-04-22T12:36:12.980Z,1.00
2023-04-22T12:38:41.536Z,1.10
2023-04-22T12:41:09.834Z,0.30
2023-04-22T12:43:39.464Z,0.60
2023-04-22T12:46:08.201Z,0.80
2023-04-22T12:48:37.752Z,0.50
2023-04-22T12:51:08.591Z,0.40
2023-04-22T12:53:37.577Z,0.50
2023-04-22T12:56:06.991Z,0.40
2023-04-22T12:58:36.495Z,0.30
2023-04-22T13:01:07.424Z,0.60
2023-04-22T13:03:38.912Z,0.30
2023-04-22T13:06:11.091Z,0.80
2023-04-22T13:08:39.557Z,1.30
2023-04-22T13:11:07.849Z,0.30
2023-04-22T13:13:36.279Z,0.60
2023-04-22T13:16:04.740Z,2.60
2023-04-22T13:18:34.040Z,0.70
2023-04-22T13:21:02.465Z,0.60
2023-04-22T13:23:31.102Z,0.50
2023-04-22T13:25:59.730Z,2.50
2023-04-22T13:28:28.524Z,1.50
2023-04-22T13:30:56.812Z,1.20
2023-04-22T13:33:25.872Z,1.30
2023-04-22T13:35:55.253Z,0.60
2023-04-22T13:38:30.037Z,0.40
2023-04-22T13:40:59.252Z,0.70
2023-04-22T13:43:29.156Z,0.80
2023-04-22T13:45:57.470Z,1.20
2023-04-22T13:48:25.772Z,2.20
2023-04-22T13:50:54.016Z,0.80
2023-04-22T13:53:22.310Z,2.80
2023-04-22T13:55:50.689Z,1.00
2023-04-22T13:58:19.032Z,1.50
2023-04-22T14:00:47.294Z,3.70
2023-04-22T14:03:15.647Z,2.50
2023-04-22T14:05:43.938Z,2.90
2023-04-22T14:08:12.145Z,1.60
2023-04-22T14:10:40.407Z,0.80
2023-04-22T14:13:08.961Z,2.60
2023-04-22T14:15:38.620Z,3.00
2023-04-22T14:18:09.195Z,4.60
2023-04-22T14:20:38.873Z,0.80
2023-04-22T14:23:07.789Z,0.50
2023-04-22T14:25:36.510Z,0.80
2023-04-22T14:28:04.891Z,1.60
2023-04-22T14:30:33.335Z,1.60
2023-04-22T14:33:02.659Z,2.30
2023-04-22T14:35:31.556Z,8.10
2023-04-22T14:38:00.523Z,5.00
2023-04-22T14:40:30.289Z,5.80
2023-04-22T14:42:59.381Z,1.90
2023-04-22T14:45:29.572Z,2.30
2023-04-22T14:47:58.991Z,1.40
2023-04-22T14:50:28.562Z,2.70
2023-04-22T14:52:57.190Z,1.20
2023-04-22T14:55:25.932Z,1.80
2023-04-22T14:57:57.075Z,4.70
2023-04-22T15:00:25.909Z,1.80
2023-04-22T15:02:54.970Z,2.50
2023-04-22T15:05:23.774Z,6.20
2023-04-22T15:07:52.699Z,2.80
2023-04-22T15:10:21.359Z,3.50
2023-04-22T15:12:49.696Z,1.90
2023-04-22T15:15:18.604Z,1.10
2023-04-22T15:17:46.975Z,1.80
2023-04-22T15:20:15.488Z,1.30
2023-04-22T15:22:44.307Z,5.60
2023-04-22T15:25:16.749Z,7.20
2023-04-22T15:27:48.401Z,4.70
2023-04-22T15:30:17.567Z,2.60
2023-04-22T15:32:46.780Z,3.70
2023-04-22T15:35:15.706Z,8.80
2023-04-22T15:37:45.148Z,9.50
2023-04-22T15:40:13.394Z,6.30
2023-04-22T15:42:41.705Z,21.10
2023-04-22T15:45:10.806Z,8.30
2023-04-22T15:47:40.754Z,3.90
2023-04-22T15:50:10.170Z,8.70
2023-04-22T15:52:39.690Z,15.90
2023-04-22T15:55:08.599Z,9.00
2023-04-22T15:57:40.971Z,5.90
2023-04-22T16:00:13.168Z,9.80
2023-04-22T16:02:44.721Z,6.30
2023-04-22T16:05:14.862Z,6.50
2023-04-22T16:07:43.447Z,1.60
2023-04-22T16:10:12.293Z,3.50
2023-04-22T16:12:42.036Z,5.10
2023-04-22T16:15:11.050Z,4.20
2023-04-22T16:17:40.372Z,1.70
2023-04-22T16:20:09.784Z,19.50
2023-04-22T16:22:39.108Z,14.00
2023-04-22T16:25:08.096Z,10.00
2023-04-22T16:27:36.579Z,7.90
2023-04-22T16:30:05.759Z,18.10
2023-04-22T16:32:34.387Z,13.10
2023-04-22T16:35:02.669Z,9.90
2023-04-22T16:37:31.682Z,8.80
2023-04-22T16:40:01.254Z,14.00
2023-04-22T16:42:29.859Z,9.10
2023-04-22T16:44:58.302Z,22.40
2023-04-22T16:47:27.169Z,39.00
2023-04-22T16:49:55.669Z,15.60
2023-04-22T16:52:24.359Z,7.80
2023-04-22T16:54:53.034Z,5.90
2023-04-22T16:58:01.227Z,11.40
2023-04-22T17:00:30.305Z,9.10
2023-04-22T17:02:58.983Z,8.10
2023-04-22T17:05:27.783Z,5.10
2023-04-22T17:08:00.757Z,3.60
2023-04-22T17:13:01.557Z,2.00
2023-04-22T17:15:29.815Z,6.50
2023-04-22T17:17:58.319Z,2.40
2023-04-22T17:20:27.026Z,7.50
2023-04-22T17:22:55.379Z,4.40
2023-04-22T17:25:24.016Z,10.00
2023-04-22T17:27:52.311Z,9.30
2023-04-22T17:30:21.100Z,8.20
2023-04-22T17:32:49.826Z,10.40
2023-04-22T17:35:18.282Z,13.90
2023-04-22T17:37:46.746Z,10.70
2023-04-22T17:40:17.184Z,8.60
2023-04-22T17:42:46.465Z,9.60
2023-04-22T17:45:14.847Z,8.40
2023-04-22T17:47:43.553Z,10.40
2023-04-22T17:50:11.892Z,8.40
2023-04-22T17:52:40.760Z,15.50
2023-04-22T17:55:40.099Z,15.40
2023-04-22T17:58:09.910Z,29.50
2023-04-22T18:00:38.754Z,18.50
2023-04-22T18:03:07.831Z,20.80
2023-04-22T18:05:43.039Z,11.10
2023-04-22T18:08:11.297Z,12.20
2023-04-22T18:10:39.885Z,9.70
2023-04-22T18:13:08.369Z,13.30
2023-04-22T18:15:36.670Z,10.90
2023-04-22T18:18:05.285Z,8.80
2023-04-22T18:20:34.155Z,14.20
2023-04-22T18:23:02.583Z,11.60
2023-04-22T18:25:30.930Z,12.90
2023-04-22T18:27:59.425Z,10.20
2023-04-22T18:30:27.736Z,8.50
2023-04-22T18:32:56.509Z,10.40
2023-04-22T18:35:26.429Z,10.10
2023-04-22T18:37:54.804Z,14.80
2023-04-22T18:40:23.797Z,22.60
2023-04-22T18:42:54.426Z,23.50
2023-04-22T18:45:25.196Z,24.40
2023-04-22T18:47:53.871Z,17.00
2023-04-22T18:50:22.637Z,12.90
2023-04-22T18:52:51.325Z,15.40
2023-04-22T18:55:19.691Z,10.60
2023-04-22T18:57:49.705Z,16.10
2023-04-22T19:00:18.495Z,11.40
2023-04-22T19:02:47.043Z,9.40
2023-04-22T19:05:15.556Z,9.10
2023-04-22T19:07:45.334Z,9.60
2023-04-22T19:10:13.955Z,7.90
2023-04-22T19:12:42.638Z,12.80
2023-04-22T19:15:11.726Z,7.70
2023-04-22T19:17:42.642Z,10.50
2023-04-22T19:20:12.783Z,5.20
2023-04-22T19:22:41.776Z,13.00
2023-04-22T19:25:10.153Z,9.30
2023-04-22T19:27:39.523Z,10.50
2023-04-22T19:30:08.648Z,5.90
2023-04-22T19:32:37.184Z,9.90
2023-04-22T19:35:08.019Z,10.10
2023-04-22T19:37:36.869Z,12.70
2023-04-22T19:40:05.900Z,11.30
2023-04-22T19:42:34.734Z,13.00
2023-04-22T19:45:03.938Z,18.60
2023-04-22T19:47:33.281Z,19.70
2023-04-22T19:50:03.596Z,18.60
2023-04-22T19:52:33.367Z,18.80
2023-04-22T19:55:09.942Z,32.80
2023-04-22T19:57:39.236Z,58.00
2023-04-22T20:00:08.175Z,55.00
2023-04-22T20:02:44.630Z,22.40
2023-04-22T20:05:13.529Z,14.90
2023-04-22T20:07:43.273Z,15.00
2023-04-22T20:10:12.592Z,8.20
2023-04-22T20:12:41.588Z,14.30
2023-04-22T20:15:10.959Z,17.20
2023-04-22T20:17:39.701Z,12.00
2023-04-22T20:20:13.256Z,9.80
2023-04-22T20:22:42.510Z,11.70
2023-04-22T20:25:17.390Z,9.40
2023-04-22T20:27:46.012Z,15.20
2023-04-22T20:30:14.970Z,5.20
2023-04-22T20:32:43.377Z,8.30
2023-04-22T20:35:16.352Z,8.00
2023-04-22T20:37:46.267Z,6.30
2023-04-22T20:40:15.366Z,5.00
2023-04-22T20:42:44.175Z,5.10
2023-04-22T20:45:16.031Z,11.00
2023-04-22T20:47:44.728Z,32.80
2023-04-22T20:50:13.579Z,15.70
2023-04-22T20:52:43.408Z,16.20
2023-04-22T20:55:11.773Z,14.00
2023-04-22T20:57:40.235Z,20.00
2023-04-22T21:00:10.385Z,12.10
2023-04-22T21:02:39.189Z,8.70
2023-04-22T21:05:09.409Z,13.60
2023-04-22T21:07:39.346Z,8.20
2023-04-22T21:10:08.892Z,9.20
2023-04-22T21:12:38.329Z,8.30
2023-04-22T21:15:07.597Z,8.20
2023-04-22T21:17:36.287Z,7.60
2023-04-22T21:20:09.452Z,8.70
2023-04-22T21:22:38.148Z,9.30
2023-04-22T21:25:07.328Z,6.70
2023-04-22T21:27:36.245Z,8.70
2023-04-22T21:30:06.173Z,9.00
2023-04-22T21:32:40.609Z,7.40
2023-04-22T21:35:09.348Z,6.90
2023-04-22T21:37:37.768Z,7.60
2023-04-22T21:40:07.319Z,5.70
2023-04-22T21:42:35.518Z,6.40
2023-04-22T21:45:04.918Z,8.10
2023-04-22T21:47:33.284Z,13.60
2023-04-22T21:50:01.671Z,9.00
2023-04-22T21:52:30.454Z,7.80
2023-04-22T21:54:58.854Z,8.80
2023-04-22T21:57:27.498Z,5.60
2023-04-22T21:59:56.182Z,13.10
2023-04-22T22:02:26.700Z,10.80
2023-04-22T22:04:55.097Z,12.70
2023-04-22T22:07:23.568Z,15.20
2023-04-22T22:09:53.078Z,10.30
2023-04-22T22:12:21.558Z,7.50
2023-04-22T22:14:49.780Z,7.70
2023-04-22T22:17:19.847Z,10.90
2023-04-22T22:19:48.934Z,20.40
2023-04-22T22:22:17.310Z,9.10
2023-04-22T22:24:45.754Z,9.50
2023-04-22T22:27:14.272Z,5.50
2023-04-22T22:29:42.754Z,9.40
2023-04-22T22:32:11.121Z,3.10
2023-04-22T22:34:39.988Z,8.10
2023-04-22T22:37:08.804Z,7.80
2023-04-22T22:39:37.422Z,11.60
2023-04-22T22:42:05.737Z,4.40
2023-04-22T22:44:34.468Z,9.20
2023-04-22T22:47:03.342Z,7.50
2023-04-22T22:49:33.386Z,7.20
2023-04-22T22:52:01.707Z,9.80
2023-04-22T22:54:30.724Z,6.50
2023-04-22T22:56:59.104Z,11.80
2023-04-22T22:59:27.683Z,7.10
2023-04-22T23:01:56.259Z,9.20
2023-04-22T23:04:24.721Z,11.70
2023-04-22T23:06:53.435Z,7.00
2023-04-22T23:09:21.808Z,9.30
2023-04-22T23:11:52.072Z,16.40
2023-04-22T23:14:20.713Z,12.20
2023-04-22T23:16:49.268Z,10.40
2023-04-22T23:19:18.288Z,9.50
2023-04-22T23:21:46.885Z,11.00
2023-04-22T23:24:15.771Z,8.20
2023-04-22T23:26:44.648Z,7.30
2023-04-22T23:29:13.437Z,6.80
2023-04-22T23:31:41.623Z,9.80
2023-04-22T23:34:09.987Z,4.80
2023-04-22T23:36:39.424Z,4.00
2023-04-22T23:39:09.862Z,9.00
2023-04-22T23:41:38.309Z,6.00
2023-04-22T23:44:06.799Z,5.30
2023-04-22T23:46:35.932Z,5.20
2023-04-22T23:49:04.355Z,4.10
2023-04-22T23:51:34.465Z,10.60
2023-04-22T23:54:02.748Z,8.40
2023-04-22T23:56:31.840Z,8.60
2023-04-22T23:59:00.896Z,5.70
